sensor_id;sensor_type;location;lat;lon;timestamp;pressure;altitude;pressure_sealevel;temperature;humidity
62791;BME280;48830;53.426;10.300;2024-01-30T00:00:59;102676.44;;;22.72;65.26
62791;BME280;48830;53.426;10.300;2024-01-30T00:03:24;102677.31;;;22.71;64.89
62791;BME280;48830;53.426;10.300;2024-01-30T00:05:50;102672.09;;;22.71;64.92
62791;BME280;48830;53.426;10.300;2024-01-30T00:08:15;102679.94;;;22.71;64.96
62791;BME280;48830;53.426;10.300;2024-01-30T00:10:41;102677.31;;;22.70;65.28
62791;BME280;48830;53.426;10.300;2024-01-30T00:13:06;102675.56;;;22.69;64.99
62791;BME280;48830;53.426;10.300;2024-01-30T00:15:32;102676.44;;;22.69;64.93
62791;BME280;48830;53.426;10.300;2024-01-30T00:17:58;102674.69;;;22.68;65.31
62791;BME280;48830;53.426;10.300;2024-01-30T00:20:23;102670.31;;;22.70;65.17
62791;BME280;48830;53.426;10.300;2024-01-30T00:22:49;102672.94;;;22.70;64.87
62791;BME280;48830;53.426;10.300;2024-01-30T00:25:14;102671.19;;;22.69;64.95
62791;BME280;48830;53.426;10.300;2024-01-30T00:27:39;102668.59;;;22.66;65.30
62791;BME280;48830;53.426;10.300;2024-01-30T00:30:05;102670.34;;;22.66;64.92
62791;BME280;48830;53.426;10.300;2024-01-30T00:32:32;102668.59;;;22.66;65.19
62791;BME280;48830;53.426;10.300;2024-01-30T00:34:57;102671.22;;;22.66;65.16
62791;BME280;48830;53.426;10.300;2024-01-30T00:37:23;102668.59;;;22.66;65.01
62791;BME280;48830;53.426;10.300;2024-01-30T00:39:48;102664.25;;;22.59;65.18
62791;BME280;48830;53.426;10.300;2024-01-30T00:42:14;102665.13;;;22.60;65.08
62791;BME280;48830;53.426;10.300;2024-01-30T00:44:40;102661.63;;;22.59;65.16
62791;BME280;48830;53.426;10.300;2024-01-30T00:47:06;102665.16;;;22.55;65.68
62791;BME280;48830;53.426;10.300;2024-01-30T00:49:31;102656.38;;;22.59;65.20
62791;BME280;48830;53.426;10.300;2024-01-30T00:51:57;102666.03;;;22.60;65.13
62791;BME280;48830;53.426;10.300;2024-01-30T00:54:22;102654.63;;;22.60;64.93
62791;BME280;48830;53.426;10.300;2024-01-30T00:56:48;102651.16;;;22.61;65.36
62791;BME280;48830;53.426;10.300;2024-01-30T00:59:13;102652.03;;;22.61;64.91
62791;BME280;48830;53.426;10.300;2024-01-30T01:01:38;102652.03;;;22.61;65.27
62791;BME280;48830;53.426;10.300;2024-01-30T01:04:04;102648.53;;;22.59;65.26
62791;BME280;48830;53.426;10.300;2024-01-30T01:06:29;102653.78;;;22.58;65.19
62791;BME280;48830;53.426;10.300;2024-01-30T01:08:55;102658.16;;;22.57;65.13
62791;BME280;48830;53.426;10.300;2024-01-30T01:11:20;102651.16;;;22.58;65.45
62791;BME280;48830;53.426;10.300;2024-01-30T01:13:46;102659.91;;;22.58;64.89
62791;BME280;48830;53.426;10.300;2024-01-30T01:16:11;102663.41;;;22.56;65.05
62791;BME280;48830;53.426;10.300;2024-01-30T01:18:37;102654.69;;;22.55;65.47
62791;BME280;48830;53.426;10.300;2024-01-30T01:21:02;102666.91;;;22.56;65.36
62791;BME280;48830;53.426;10.300;2024-01-30T01:23:28;102663.41;;;22.56;65.07
62791;BME280;48830;53.426;10.300;2024-01-30T01:25:53;102667.78;;;22.55;65.17
62791;BME280;48830;53.426;10.300;2024-01-30T01:28:20;102665.16;;;22.55;65.08
62791;BME280;48830;53.426;10.300;2024-01-30T01:30:45;102661.69;;;22.50;65.40
62791;BME280;48830;53.426;10.300;2024-01-30T01:33:11;102663.41;;;22.52;65.31
62791;BME280;48830;53.426;10.300;2024-01-30T01:35:39;102659.03;;;22.53;65.29
62791;BME280;48830;53.426;10.300;2024-01-30T01:38:05;102663.41;;;22.52;65.01
62791;BME280;48830;53.426;10.300;2024-01-30T01:40:30;102655.56;;;22.51;65.36
62791;BME280;48830;53.426;10.300;2024-01-30T01:42:56;102654.69;;;22.50;65.43
62791;BME280;48830;53.426;10.300;2024-01-30T01:45:22;102657.31;;;22.49;65.09
62791;BME280;48830;53.426;10.300;2024-01-30T01:47:50;102646.81;;;22.49;65.44
62791;BME280;48830;53.426;10.300;2024-01-30T01:50:17;102645.97;;;22.50;65.29
62791;BME280;48830;53.426;10.300;2024-01-30T01:52:47;102646.81;;;22.52;65.42
62791;BME280;48830;53.426;10.300;2024-01-30T01:55:13;102641.59;;;22.49;65.31
62791;BME280;48830;53.426;10.300;2024-01-30T01:57:40;102647.72;;;22.48;65.05
62791;BME280;48830;53.426;10.300;2024-01-30T02:00:07;102635.47;;;22.48;65.21
62791;BME280;48830;53.426;10.300;2024-01-30T02:02:36;102631.97;;;22.48;65.23
62791;BME280;48830;53.426;10.300;2024-01-30T02:05:02;102631.13;;;22.46;65.00
62791;BME280;48830;53.426;10.300;2024-01-30T02:07:29;102638.09;;;22.47;65.27
62791;BME280;48830;53.426;10.300;2024-01-30T02:09:55;102636.38;;;22.44;65.18
62791;BME280;48830;53.426;10.300;2024-01-30T02:12:20;102628.50;;;22.43;65.35
62791;BME280;48830;53.426;10.300;2024-01-30T02:14:50;102625.88;;;22.43;64.86
62791;BME280;48830;53.426;10.300;2024-01-30T02:17:16;102630.28;;;22.39;65.68
62791;BME280;48830;53.426;10.300;2024-01-30T02:19:41;102618.03;;;22.41;65.46
62791;BME280;48830;53.426;10.300;2024-01-30T02:22:08;102618.03;;;22.44;65.53
62791;BME280;48830;53.426;10.300;2024-01-30T02:24:34;102625.03;;;22.42;65.44
62791;BME280;48830;53.426;10.300;2024-01-30T02:27:00;102617.19;;;22.41;65.26
62791;BME280;48830;53.426;10.300;2024-01-30T02:29:25;102614.53;;;22.42;65.56
62791;BME280;48830;53.426;10.300;2024-01-30T02:31:51;102616.28;;;22.42;65.83
62791;BME280;48830;53.426;10.300;2024-01-30T02:34:18;102605.81;;;22.42;65.01
62791;BME280;48830;53.426;10.300;2024-01-30T02:36:44;102613.69;;;22.39;65.49
62791;BME280;48830;53.426;10.300;2024-01-30T02:39:10;102604.97;;;22.40;65.09
62791;BME280;48830;53.426;10.300;2024-01-30T02:41:36;102610.19;;;22.38;65.18
62791;BME280;48830;53.426;10.300;2024-01-30T02:44:04;102601.44;;;22.41;65.36
62791;BME280;48830;53.426;10.300;2024-01-30T02:46:30;102604.94;;;22.38;65.59
62791;BME280;48830;53.426;10.300;2024-01-30T02:48:55;102604.97;;;22.35;65.79
62791;BME280;48830;53.426;10.300;2024-01-30T02:51:21;102601.47;;;22.36;65.55
62791;BME280;48830;53.426;10.300;2024-01-30T02:53:46;102599.72;;;22.35;65.32
62791;BME280;48830;53.426;10.300;2024-01-30T02:56:12;102603.22;;;22.37;65.32
62791;BME280;48830;53.426;10.300;2024-01-30T02:58:41;102599.75;;;22.34;65.47
62791;BME280;48830;53.426;10.300;2024-01-30T03:01:07;102593.63;;;22.36;65.51
62791;BME280;48830;53.426;10.300;2024-01-30T03:03:33;102597.97;;;22.36;65.65
62791;BME280;48830;53.426;10.300;2024-01-30T03:06:01;102587.50;;;22.36;65.60
62791;BME280;48830;53.426;10.300;2024-01-30T03:08:27;102591.00;;;22.35;65.32
62791;BME280;48830;53.426;10.300;2024-01-30T03:10:52;102584.91;;;22.34;65.22
62791;BME280;48830;53.426;10.300;2024-01-30T03:13:18;102587.50;;;22.33;65.45
62791;BME280;48830;53.426;10.300;2024-01-30T03:15:43;102585.75;;;22.33;66.03
62791;BME280;48830;53.426;10.300;2024-01-30T03:18:09;102584.03;;;22.34;65.57
62791;BME280;48830;53.426;10.300;2024-01-30T03:20:34;102586.63;;;22.32;65.12
62791;BME280;48830;53.426;10.300;2024-01-30T03:23:00;102576.16;;;22.32;65.14
62791;BME280;48830;53.426;10.300;2024-01-30T03:25:26;102576.19;;;22.27;65.63
62791;BME280;48830;53.426;10.300;2024-01-30T03:27:51;102578.78;;;22.34;65.05
62791;BME280;48830;53.426;10.300;2024-01-30T03:30:17;102580.53;;;22.35;65.15
62791;BME280;48830;53.426;10.300;2024-01-30T03:32:43;102571.78;;;22.33;65.44
62791;BME280;48830;53.426;10.300;2024-01-30T03:35:09;102571.78;;;22.36;65.40
62791;BME280;48830;53.426;10.300;2024-01-30T03:37:35;102568.31;;;22.34;65.52
62791;BME280;48830;53.426;10.300;2024-01-30T03:40:01;102571.78;;;22.36;65.20
62791;BME280;48830;53.426;10.300;2024-01-30T03:42:27;102567.41;;;22.36;65.48
62791;BME280;48830;53.426;10.300;2024-01-30T03:44:53;102570.00;;;22.41;65.32
62791;BME280;48830;53.426;10.300;2024-01-30T03:47:20;102563.91;;;22.39;65.09
62791;BME280;48830;53.426;10.300;2024-01-30T03:49:46;102561.25;;;22.42;64.95
62791;BME280;48830;53.426;10.300;2024-01-30T03:52:11;102559.50;;;22.44;64.99
62791;BME280;48830;53.426;10.300;2024-01-30T03:54:37;102560.41;;;22.44;64.98
62791;BME280;48830;53.426;10.300;2024-01-30T03:57:02;102566.50;;;22.45;65.00
62791;BME280;48830;53.426;10.300;2024-01-30T03:59:28;102560.41;;;22.44;65.12
62791;BME280;48830;53.426;10.300;2024-01-30T04:01:54;102565.56;;;22.49;65.09
62791;BME280;48830;53.426;10.300;2024-01-30T04:04:19;102557.72;;;22.49;64.76
62791;BME280;48830;53.426;10.300;2024-01-30T04:06:46;102569.09;;;22.51;65.17
62791;BME280;48830;53.426;10.300;2024-01-30T04:09:14;102568.19;;;22.55;64.97
62791;BME280;48830;53.426;10.300;2024-01-30T04:11:41;102564.69;;;22.56;65.07
62791;BME280;48830;53.426;10.300;2024-01-30T04:14:07;102564.69;;;22.56;64.84
62791;BME280;48830;53.426;10.300;2024-01-30T04:16:33;102556.81;;;22.58;64.90
62791;BME280;48830;53.426;10.300;2024-01-30T04:18:58;102556.81;;;22.58;64.61
62791;BME280;48830;53.426;10.300;2024-01-30T04:21:24;102547.19;;;22.58;64.85
62791;BME280;48830;53.426;10.300;2024-01-30T04:23:51;102555.94;;;22.60;64.72
62791;BME280;48830;53.426;10.300;2024-01-30T04:26:16;102546.28;;;22.62;64.91
62791;BME280;48830;53.426;10.300;2024-01-30T04:28:44;102549.78;;;22.63;64.58
62791;BME280;48830;53.426;10.300;2024-01-30T04:31:10;102551.53;;;22.62;64.61
62791;BME280;48830;53.426;10.300;2024-01-30T04:33:36;102559.34;;;22.65;65.06
62791;BME280;48830;53.426;10.300;2024-01-30T04:36:01;102552.41;;;22.66;64.43
62791;BME280;48830;53.426;10.300;2024-01-30T04:38:28;102555.88;;;22.66;64.62
62791;BME280;48830;53.426;10.300;2024-01-30T04:40:53;102568.09;;;22.67;64.74
62791;BME280;48830;53.426;10.300;2024-01-30T04:43:19;102568.94;;;22.69;64.34
62791;BME280;48830;53.426;10.300;2024-01-30T04:45:45;102564.59;;;22.68;64.68
62791;BME280;48830;53.426;10.300;2024-01-30T04:48:10;102568.09;;;22.67;64.98
62791;BME280;48830;53.426;10.300;2024-01-30T04:50:35;102566.31;;;22.72;64.72
62791;BME280;48830;53.426;10.300;2024-01-30T04:53:01;102558.47;;;22.72;64.57
62791;BME280;48830;53.426;10.300;2024-01-30T04:55:27;102555.84;;;22.72;64.94
62791;BME280;48830;53.426;10.300;2024-01-30T04:57:52;102554.06;;;22.74;64.67
62791;BME280;48830;53.426;10.300;2024-01-30T05:00:18;102568.03;;;22.75;64.12
62791;BME280;48830;53.426;10.300;2024-01-30T05:02:43;102575.91;;;22.75;64.33
62791;BME280;48830;53.426;10.300;2024-01-30T05:07:34;102562.81;;;22.76;64.49
62791;BME280;48830;53.426;10.300;2024-01-30T05:10:00;102568.00;;;22.79;64.43
62791;BME280;48830;53.426;10.300;2024-01-30T05:12:25;102570.63;;;22.81;64.14
62791;BME280;48830;53.426;10.300;2024-01-30T05:14:51;102573.22;;;22.81;64.24
62791;BME280;48830;53.426;10.300;2024-01-30T05:17:16;102568.88;;;22.80;64.15
62791;BME280;48830;53.426;10.300;2024-01-30T05:19:43;102561.88;;;22.84;64.36
62791;BME280;48830;53.426;10.300;2024-01-30T05:22:08;102555.75;;;22.85;64.43
62791;BME280;48830;53.426;10.300;2024-01-30T05:24:35;102552.25;;;22.87;64.46
62791;BME280;48830;53.426;10.300;2024-01-30T05:27:01;102552.22;;;22.86;64.19
62791;BME280;48830;53.426;10.300;2024-01-30T05:29:27;102549.63;;;22.87;64.38
62791;BME280;48830;53.426;10.300;2024-01-30T05:31:52;102547.00;;;22.89;64.07
62791;BME280;48830;53.426;10.300;2024-01-30T05:34:18;102548.75;;;22.88;64.03
62791;BME280;48830;53.426;10.300;2024-01-30T05:36:43;102539.97;;;22.91;64.18
62791;BME280;48830;53.426;10.300;2024-01-30T05:39:08;102545.22;;;22.91;64.29
62791;BME280;48830;53.426;10.300;2024-01-30T05:41:34;102542.59;;;22.92;63.89
62791;BME280;48830;53.426;10.300;2024-01-30T05:43:59;102543.47;;;22.93;64.04
62791;BME280;48830;53.426;10.300;2024-01-30T05:46:25;102545.22;;;22.94;64.09
62791;BME280;48830;53.426;10.300;2024-01-30T05:48:50;102551.34;;;22.91;64.31
62791;BME280;48830;53.426;10.300;2024-01-30T05:51:16;102545.22;;;22.91;64.28
62791;BME280;48830;53.426;10.300;2024-01-30T05:53:41;102539.13;;;22.89;63.95
62791;BME280;48830;53.426;10.300;2024-01-30T05:56:07;102545.22;;;22.91;63.89
62791;BME280;48830;53.426;10.300;2024-01-30T05:58:32;102531.22;;;22.92;63.99
62791;BME280;48830;53.426;10.300;2024-01-30T06:00:58;102536.47;;;22.95;63.79
62791;BME280;48830;53.426;10.300;2024-01-30T06:03:23;102535.59;;;22.91;63.82
62791;BME280;48830;53.426;10.300;2024-01-30T06:05:49;102539.94;;;22.97;63.62
62791;BME280;48830;53.426;10.300;2024-01-30T06:08:15;102534.69;;;22.97;64.11
62791;BME280;48830;53.426;10.300;2024-01-30T06:10:40;102531.19;;;22.98;64.20
62791;BME280;48830;53.426;10.300;2024-01-30T06:13:06;102537.25;;;23.03;63.54
62791;BME280;48830;53.426;10.300;2024-01-30T06:15:31;102531.16;;;23.01;64.10
62791;BME280;48830;53.426;10.300;2024-01-30T06:17:58;102525.91;;;23.01;63.63
62791;BME280;48830;53.426;10.300;2024-01-30T06:20:24;102523.31;;;22.96;64.03
62791;BME280;48830;53.426;10.300;2024-01-30T06:22:49;102527.66;;;23.00;64.04
62791;BME280;48830;53.426;10.300;2024-01-30T06:25:15;102518.03;;;23.02;64.03
62791;BME280;48830;53.426;10.300;2024-01-30T06:27:42;102518.88;;;23.03;63.78
62791;BME280;48830;53.426;10.300;2024-01-30T06:30:08;102518.06;;;22.99;63.59
62791;BME280;48830;53.426;10.300;2024-01-30T06:32:35;102511.06;;;23.00;63.94
62791;BME280;48830;53.426;10.300;2024-01-30T06:35:01;102510.19;;;23.01;63.83
62791;BME280;48830;53.426;10.300;2024-01-30T06:37:27;102511.03;;;23.03;63.97
62791;BME280;48830;53.426;10.300;2024-01-30T06:39:52;102503.16;;;23.03;63.81
62791;BME280;48830;53.426;10.300;2024-01-30T06:42:18;102497.09;;;22.99;64.04
62791;BME280;48830;53.426;10.300;2024-01-30T06:44:44;102498.78;;;23.05;63.66
62791;BME280;48830;53.426;10.300;2024-01-30T06:47:09;102501.41;;;23.05;63.59
62791;BME280;48830;53.426;10.300;2024-01-30T06:49:35;102504.88;;;23.07;63.89
62791;BME280;48830;53.426;10.300;2024-01-30T06:52:05;102497.00;;;23.07;63.83
62791;BME280;48830;53.426;10.300;2024-01-30T06:54:30;102499.63;;;23.07;64.03
62791;BME280;48830;53.426;10.300;2024-01-30T06:56:56;102496.09;;;23.08;63.73
62791;BME280;48830;53.426;10.300;2024-01-30T06:59:22;102497.81;;;23.12;63.53
62791;BME280;48830;53.426;10.300;2024-01-30T07:01:47;102499.56;;;23.13;63.37
62791;BME280;48830;53.426;10.300;2024-01-30T07:04:13;102497.03;;;23.05;63.91
62791;BME280;48830;53.426;10.300;2024-01-30T07:06:38;102496.06;;;23.14;63.42
62791;BME280;48830;53.426;10.300;2024-01-30T07:09:04;102496.94;;;23.13;63.83
62791;BME280;48830;53.426;10.300;2024-01-30T07:11:30;102495.22;;;23.11;63.38
62791;BME280;48830;53.426;10.300;2024-01-30T07:13:55;102498.69;;;23.16;63.58
62791;BME280;48830;53.426;10.300;2024-01-30T07:16:21;102496.94;;;23.15;63.39
62791;BME280;48830;53.426;10.300;2024-01-30T07:18:47;102496.94;;;23.15;63.49
62791;BME280;48830;53.426;10.300;2024-01-30T07:21:13;102501.28;;;23.17;63.81
62791;BME280;48830;53.426;10.300;2024-01-30T07:23:38;102502.19;;;23.15;63.19
62791;BME280;48830;53.426;10.300;2024-01-30T07:26:05;102497.81;;;23.15;63.61
62791;BME280;48830;53.426;10.300;2024-01-30T07:28:31;102505.66;;;23.14;63.24
62791;BME280;48830;53.426;10.300;2024-01-30T07:30:57;102498.69;;;23.13;63.53
62791;BME280;48830;53.426;10.300;2024-01-30T07:33:22;102499.53;;;23.16;63.33
62791;BME280;48830;53.426;10.300;2024-01-30T07:35:48;102498.72;;;23.11;63.63
62791;BME280;48830;53.426;10.300;2024-01-30T07:38:14;102492.56;;;23.12;63.79
62791;BME280;48830;53.426;10.300;2024-01-30T07:40:39;102492.53;;;23.17;63.36
62791;BME280;48830;53.426;10.300;2024-01-30T07:43:06;102492.50;;;23.18;63.02
62791;BME280;48830;53.426;10.300;2024-01-30T07:45:31;102494.28;;;23.19;63.20
62791;BME280;48830;53.426;10.300;2024-01-30T07:47:58;102498.66;;;23.17;63.52
62791;BME280;48830;53.426;10.300;2024-01-30T07:50:25;102494.31;;;23.13;63.37
62791;BME280;48830;53.426;10.300;2024-01-30T07:52:51;102494.31;;;23.13;63.87
62791;BME280;48830;53.426;10.300;2024-01-30T07:55:20;102502.22;;;23.12;63.28
62791;BME280;48830;53.426;10.300;2024-01-30T07:57:48;102508.31;;;23.12;63.87
62791;BME280;48830;53.426;10.300;2024-01-30T08:00:14;102502.19;;;23.15;63.15
62791;BME280;48830;53.426;10.300;2024-01-30T08:02:39;102506.47;;;23.23;63.35
62791;BME280;48830;53.426;10.300;2024-01-30T08:05:05;102504.72;;;23.25;63.51
62791;BME280;48830;53.426;10.300;2024-01-30T08:07:30;102509.09;;;23.22;63.13
62791;BME280;48830;53.426;10.300;2024-01-30T08:09:56;102496.00;;;23.22;63.54
62791;BME280;48830;53.426;10.300;2024-01-30T08:12:22;102494.22;;;23.22;63.08
62791;BME280;48830;53.426;10.300;2024-01-30T08:14:47;102498.66;;;23.17;63.32
62791;BME280;48830;53.426;10.300;2024-01-30T08:17:12;102496.03;;;23.17;63.30
62791;BME280;48830;53.426;10.300;2024-01-30T08:19:38;102497.75;;;23.21;63.12
62791;BME280;48830;53.426;10.300;2024-01-30T08:22:03;102491.66;;;23.18;63.63
62791;BME280;48830;53.426;10.300;2024-01-30T08:24:29;102492.50;;;23.18;63.13
62791;BME280;48830;53.426;10.300;2024-01-30T08:26:54;102491.59;;;23.25;63.44
62791;BME280;48830;53.426;10.300;2024-01-30T08:29:20;102492.50;;;23.18;63.55
62791;BME280;48830;53.426;10.300;2024-01-30T08:31:46;102490.78;;;23.17;63.37
62791;BME280;48830;53.426;10.300;2024-01-30T08:34:11;102490.75;;;23.19;63.34
62791;BME280;48830;53.426;10.300;2024-01-30T08:36:37;102485.53;;;23.20;63.16
62791;BME280;48830;53.426;10.300;2024-01-30T08:39:02;102493.41;;;23.17;63.34
62791;BME280;48830;53.426;10.300;2024-01-30T08:41:28;102484.66;;;23.17;64.05
62791;BME280;48830;53.426;10.300;2024-01-30T08:43:53;102489.00;;;23.21;63.29
62791;BME280;48830;53.426;10.300;2024-01-30T08:46:19;102491.56;;;23.27;63.45
62791;BME280;48830;53.426;10.300;2024-01-30T08:48:46;102488.97;;;23.25;63.02
62791;BME280;48830;53.426;10.300;2024-01-30T08:51:12;102490.63;;;23.33;63.21
62791;BME280;48830;53.426;10.300;2024-01-30T08:53:37;102479.25;;;23.32;63.43
62791;BME280;48830;53.426;10.300;2024-01-30T08:56:03;102480.00;;;23.45;63.50
62791;BME280;48830;53.426;10.300;2024-01-30T08:58:29;102482.56;;;23.49;63.52
62791;BME280;48830;53.426;10.300;2024-01-30T09:00:54;102480.75;;;23.54;63.34
62791;BME280;48830;53.426;10.300;2024-01-30T09:03:20;102474.53;;;23.66;63.14
62791;BME280;48830;53.426;10.300;2024-01-30T09:05:45;102469.28;;;23.68;63.07
62791;BME280;48830;53.426;10.300;2024-01-30T09:08:11;102469.38;;;23.55;63.72
62791;BME280;48830;53.426;10.300;2024-01-30T09:10:36;102464.84;;;23.70;63.56
62791;BME280;48830;53.426;10.300;2024-01-30T09:13:02;102462.19;;;23.74;63.37
62791;BME280;48830;53.426;10.300;2024-01-30T09:15:28;102467.25;;;23.87;62.79
62791;BME280;48830;53.426;10.300;2024-01-30T09:17:54;102462.09;;;23.80;63.04
62791;BME280;48830;53.426;10.300;2024-01-30T09:20:19;102469.09;;;23.80;62.84
62791;BME280;48830;53.426;10.300;2024-01-30T09:22:47;102465.53;;;23.86;63.11
62791;BME280;48830;53.426;10.300;2024-01-30T09:25:13;102461.00;;;23.97;62.49
62791;BME280;48830;53.426;10.300;2024-01-30T09:27:38;102458.28;;;24.03;62.63
62791;BME280;48830;53.426;10.300;2024-01-30T09:30:04;102461.69;;;24.11;62.41
62791;BME280;48830;53.426;10.300;2024-01-30T09:32:30;102465.09;;;24.16;62.28
62791;BME280;48830;53.426;10.300;2024-01-30T09:34:55;102465.94;;;24.18;62.68
62791;BME280;48830;53.426;10.300;2024-01-30T09:37:21;102465.03;;;24.19;62.05
62791;BME280;48830;53.426;10.300;2024-01-30T09:39:46;102471.16;;;24.20;62.63
62791;BME280;48830;53.426;10.300;2024-01-30T09:42:26;102474.72;;;24.16;62.33
62791;BME280;48830;53.426;10.300;2024-01-30T09:44:53;102475.69;;;24.10;62.26
62791;BME280;48830;53.426;10.300;2024-01-30T09:47:19;102471.28;;;24.12;62.33
62791;BME280;48830;53.426;10.300;2024-01-30T09:49:44;102470.41;;;24.13;62.49
62791;BME280;48830;53.426;10.300;2024-01-30T09:52:11;102474.72;;;24.17;62.83
62791;BME280;48830;53.426;10.300;2024-01-30T09:54:38;102481.81;;;24.10;63.14
62791;BME280;48830;53.426;10.300;2024-01-30T09:57:04;102483.63;;;24.07;62.78
62791;BME280;48830;53.426;10.300;2024-01-30T09:59:30;102479.13;;;24.15;63.26
62791;BME280;48830;53.426;10.300;2024-01-30T10:01:56;102477.47;;;24.08;63.22
62791;BME280;48830;53.426;10.300;2024-01-30T10:04:22;102474.88;;;24.05;63.30
62791;BME280;48830;53.426;10.300;2024-01-30T10:06:48;102467.91;;;24.02;63.23
62791;BME280;48830;53.426;10.300;2024-01-30T10:09:13;102472.13;;;24.14;63.20
62791;BME280;48830;53.426;10.300;2024-01-30T10:11:39;102468.66;;;24.12;63.12
62791;BME280;48830;53.426;10.300;2024-01-30T10:14:04;102463.50;;;24.06;63.49
62791;BME280;48830;53.426;10.300;2024-01-30T10:16:30;102464.31;;;24.11;63.70
62791;BME280;48830;53.426;10.300;2024-01-30T10:18:55;102461.59;;;24.17;63.36
62791;BME280;48830;53.426;10.300;2024-01-30T10:21:21;102457.16;;;24.19;63.13
62791;BME280;48830;53.426;10.300;2024-01-30T10:23:47;102461.59;;;24.17;63.16
62791;BME280;48830;53.426;10.300;2024-01-30T10:26:12;102451.88;;;24.22;63.01
62791;BME280;48830;53.426;10.300;2024-01-30T10:28:39;102442.31;;;24.15;63.73
62791;BME280;48830;53.426;10.300;2024-01-30T10:31:04;102444.09;;;24.15;64.22
62791;BME280;48830;53.426;10.300;2024-01-30T10:33:30;102442.41;;;24.09;64.91
62791;BME280;48830;53.426;10.300;2024-01-30T10:36:00;102437.03;;;24.18;63.62
62791;BME280;48830;53.426;10.300;2024-01-30T10:38:28;102431.81;;;24.15;63.99
62791;BME280;48830;53.426;10.300;2024-01-30T10:40:56;102428.25;;;24.19;63.91
62791;BME280;48830;53.426;10.300;2024-01-30T10:43:22;102431.69;;;24.24;63.99
62791;BME280;48830;53.426;10.300;2024-01-30T10:45:50;102427.25;;;24.26;63.86
62791;BME280;48830;53.426;10.300;2024-01-30T10:48:21;102429.03;;;24.27;63.32
62791;BME280;48830;53.426;10.300;2024-01-30T10:50:54;102421.13;;;24.27;64.01
62791;BME280;48830;53.426;10.300;2024-01-30T10:53:21;102423.75;;;24.27;63.19
62791;BME280;48830;53.426;10.300;2024-01-30T10:55:48;102422.09;;;24.22;63.89
62791;BME280;48830;53.426;10.300;2024-01-30T10:58:17;102418.50;;;24.26;63.29
62791;BME280;48830;53.426;10.300;2024-01-30T11:00:43;102421.06;;;24.30;63.59
62791;BME280;48830;53.426;10.300;2024-01-30T11:03:09;102419.31;;;24.32;63.63
62791;BME280;48830;53.426;10.300;2024-01-30T11:05:34;102418.41;;;24.32;63.38
62791;BME280;48830;53.426;10.300;2024-01-30T11:08:11;102410.78;;;24.15;64.05
62791;BME280;48830;53.426;10.300;2024-01-30T11:10:47;102422.34;;;24.06;63.40
62791;BME280;48830;53.426;10.300;2024-01-30T11:13:16;102412.84;;;23.96;64.28
62791;BME280;48830;53.426;10.300;2024-01-30T11:15:41;102419.09;;;23.88;63.96
62791;BME280;48830;53.426;10.300;2024-01-30T11:18:07;102412.09;;;23.87;64.21
62791;BME280;48830;53.426;10.300;2024-01-30T11:20:32;102412.09;;;23.87;63.85
62791;BME280;48830;53.426;10.300;2024-01-30T11:22:59;102416.56;;;23.78;64.49
62791;BME280;48830;53.426;10.300;2024-01-30T11:25:34;102413.09;;;23.79;64.57
62791;BME280;48830;53.426;10.300;2024-01-30T11:27:59;102413.94;;;23.78;64.26
62791;BME280;48830;53.426;10.300;2024-01-30T11:30:29;102414.81;;;23.80;64.50
62791;BME280;48830;53.426;10.300;2024-01-30T11:33:04;102417.31;;;23.90;64.02
62791;BME280;48830;53.426;10.300;2024-01-30T11:35:43;102405.94;;;23.88;64.29
62791;BME280;48830;53.426;10.300;2024-01-30T11:38:09;102402.47;;;23.87;64.28
62791;BME280;48830;53.426;10.300;2024-01-30T11:40:37;102405.09;;;23.87;64.05
62791;BME280;48830;53.426;10.300;2024-01-30T11:43:05;102412.19;;;23.80;64.14
62791;BME280;48830;53.426;10.300;2024-01-30T11:45:32;102400.78;;;23.81;64.46
62791;BME280;48830;53.426;10.300;2024-01-30T11:47:58;102406.06;;;23.80;64.47
62791;BME280;48830;53.426;10.300;2024-01-30T11:50:25;102401.78;;;23.73;64.14
62791;BME280;48830;53.426;10.300;2024-01-30T11:52:51;102400.97;;;23.69;64.20
62791;BME280;48830;53.426;10.300;2024-01-30T11:55:16;102398.28;;;23.74;64.28
62791;BME280;48830;53.426;10.300;2024-01-30T11:57:43;102402.72;;;23.70;64.67
62791;BME280;48830;53.426;10.300;2024-01-30T12:00:19;102398.31;;;23.71;64.08
62791;BME280;48830;53.426;10.300;2024-01-30T12:02:50;102399.16;;;23.74;63.95
62791;BME280;48830;53.426;10.300;2024-01-30T12:05:16;102402.66;;;23.75;64.08
62791;BME280;48830;53.426;10.300;2024-01-30T12:07:44;102399.19;;;23.71;64.23
62791;BME280;48830;53.426;10.300;2024-01-30T12:10:10;102393.09;;;23.69;64.60
62791;BME280;48830;53.426;10.300;2024-01-30T12:12:36;102387.84;;;23.69;64.34
62791;BME280;48830;53.426;10.300;2024-01-30T12:15:02;102390.28;;;23.81;63.79
62791;BME280;48830;53.426;10.300;2024-01-30T12:17:31;102383.41;;;23.73;64.53
62791;BME280;48830;53.426;10.300;2024-01-30T12:22:37;102380.81;;;23.71;64.38
62791;BME280;48830;53.426;10.300;2024-01-30T12:25:16;102383.50;;;23.68;64.58
62791;BME280;48830;53.426;10.300;2024-01-30T12:27:46;102378.22;;;23.70;64.40
62791;BME280;48830;53.426;10.300;2024-01-30T12:30:15;102383.50;;;23.67;64.13
62791;BME280;48830;53.426;10.300;2024-01-30T12:32:45;102386.84;;;23.76;64.47
62791;BME280;48830;53.426;10.300;2024-01-30T12:35:14;102385.22;;;23.69;64.17
62791;BME280;48830;53.426;10.300;2024-01-30T12:37:40;102380.88;;;23.68;64.26
62791;BME280;48830;53.426;10.300;2024-01-30T12:40:09;102377.31;;;23.71;64.10